Airfield :
LOGIN :

Register | Disclaimer

   EN    FR    IT 

 










Legend :    VFR   Marginal VFR   IFR   Intensive IFR   Very Intensive IFR
Visi :
Ceiling :
>= 8 km
>= 3000ft
5 to 8 km
1000 to 3000 ft
1500m to 5 km
500 to 1000 ft
800 to 1500m
200 to 500 ft
< 800m
< 200 ft
Symbols :   Thunderstorms  Fog  Heavy snow  Heavy precipitations  Wind > 20 kt
SIGMETs :     Misc.  Thunderstorms  Icing  Turbulence  Mountain Waves  Volcanic Ashes






- Airport Elevation : 13 ft
- IATA code : LYX


EGMD - Lydd

CURRENT METAR :
  • 251550Z 21012KT 9999 SCT014 13/12 Q1014

EXPIRED METARs :
  • 251520Z 21013KT 9999 FEW011 BKN015 13/12 Q1014
  • 251450Z 21015KT 9999 SCT010 BKN015 13/12 Q1014
  • 251420Z 21015KT 9999 SCT011 BKN015 13/12 Q1014
  • 251350Z 21017KT 9000 BKN010 13/12 Q1013

TAF TAF EGMD
Valid from the 25 at 15:00 until the 26 at 00:00 UTC


251358Z 2515/2524 19012KT 9999 SCT012
TEMPO 2515/2522 6000 -RADZ BKN006
BECMG 2518/2521 34008KT
ATIS : +44 1797 322 422



MET'MAP, your aeronautical weather chart ! - Copyright ORBIFLY December 2007 - Disclaimer

ORBIFLY MET'MAP TEAM :

Programming & Development : Alexandra Zaïnal
Concept & original design : Baudouin d'Aumeries
Assistance for programming : Marc-Olivier Méhu
Technical & hardware support : Manuel Goepfert

Contact : metmap@orbifly.com




SOURCES & CREDITS :

   NOAA